createdAt,value
2019-06-15T00:00:34.342Z,1012.56
2019-06-15T00:01:34.322Z,1012.49
2019-06-15T00:02:34.301Z,1012.49
2019-06-15T00:03:34.280Z,1012.50
2019-06-15T00:04:34.260Z,1012.48
2019-06-15T00:05:34.241Z,1012.48
2019-06-15T00:06:34.220Z,1012.46
2019-06-15T00:07:34.201Z,1012.46
2019-06-15T00:08:34.180Z,1012.46
2019-06-15T00:09:34.161Z,1012.43
2019-06-15T00:10:34.140Z,1012.46
2019-06-15T00:11:34.122Z,1012.45
2019-06-15T00:12:34.100Z,1012.42
2019-06-15T00:13:34.081Z,1012.47
2019-06-15T00:14:34.061Z,1012.40
2019-06-15T00:15:34.042Z,1012.40
2019-06-15T00:16:34.021Z,1012.39
2019-06-15T00:17:34.006Z,1012.38
2019-06-15T00:18:34.036Z,1012.39
2019-06-15T00:19:33.959Z,1012.36
2019-06-15T00:20:33.940Z,1012.36
2019-06-15T00:21:33.920Z,1012.34
2019-06-15T00:22:33.902Z,1012.36
2019-06-15T00:23:33.879Z,1012.38
2019-06-15T00:24:35.574Z,1012.35
2019-06-15T00:25:33.840Z,1012.31
2019-06-15T00:26:33.820Z,1012.30
2019-06-15T00:27:33.800Z,1012.30
2019-06-15T00:28:33.778Z,1012.29
2019-06-15T00:29:33.759Z,1012.26
2019-06-15T00:30:33.739Z,1012.26
2019-06-15T00:31:33.718Z,1012.24
2019-06-15T00:32:33.699Z,1012.25
2019-06-15T00:33:33.681Z,1012.22
2019-06-15T00:34:33.659Z,1012.21
2019-06-15T00:35:33.639Z,1012.17
2019-06-15T00:36:33.618Z,1012.15
2019-06-15T00:37:33.596Z,1012.14
2019-06-15T00:38:33.577Z,1012.07
2019-06-15T00:39:33.633Z,1012.02
2019-06-15T00:40:33.538Z,1012.02
2019-06-15T00:41:33.516Z,1012.06
2019-06-15T00:42:33.499Z,1011.98
2019-06-15T00:43:33.476Z,1012.00
2019-06-15T00:44:33.461Z,1012.01
2019-06-15T00:45:33.439Z,1011.98
2019-06-15T00:46:33.416Z,1011.99
2019-06-15T00:47:33.395Z,1012.00
2019-06-15T00:48:33.375Z,1012.00
2019-06-15T00:49:33.356Z,1011.95
2019-06-15T00:50:33.336Z,1011.93
2019-06-15T00:51:33.314Z,1011.94
2019-06-15T00:52:33.294Z,1011.92
2019-06-15T00:53:33.294Z,1011.90
2019-06-15T00:54:33.254Z,1011.90
2019-06-15T00:55:33.238Z,1011.89
2019-06-15T00:56:33.211Z,1011.85
2019-06-15T00:57:33.191Z,1011.81
2019-06-15T00:58:33.192Z,1011.82
2019-06-15T00:59:33.152Z,1011.78
2019-06-15T01:00:33.137Z,1011.74
2019-06-15T01:01:35.428Z,1011.70
2019-06-15T01:02:33.090Z,1011.70
2019-06-15T01:03:33.069Z,1011.63
2019-06-15T01:04:33.049Z,1011.59
2019-06-15T01:05:33.032Z,1011.54
2019-06-15T01:06:33.009Z,1011.49
2019-06-15T01:07:32.987Z,1011.46
2019-06-15T01:08:32.968Z,1011.44
2019-06-15T01:09:32.950Z,1011.42
2019-06-15T01:10:32.927Z,1011.40
2019-06-15T01:11:32.909Z,1011.35
2019-06-15T01:12:32.888Z,1011.33
2019-06-15T01:13:32.869Z,1011.32
2019-06-15T01:14:32.854Z,1011.27
2019-06-15T01:15:32.847Z,1011.25
2019-06-15T01:16:32.804Z,1011.22
2019-06-15T01:17:32.785Z,1011.18
2019-06-15T01:18:32.764Z,1011.19
2019-06-15T01:19:32.742Z,1011.22
2019-06-15T01:20:32.726Z,1011.17
2019-06-15T01:21:32.702Z,1011.15
2019-06-15T01:22:32.689Z,1011.14
2019-06-15T01:23:32.661Z,1011.08
2019-06-15T01:24:32.640Z,1011.09
2019-06-15T01:25:32.621Z,1011.08
2019-06-15T01:26:32.601Z,1011.05
2019-06-15T01:27:32.578Z,1011.05
2019-06-15T01:28:32.559Z,1011.02
2019-06-15T01:29:32.537Z,1011.00
2019-06-15T01:30:32.521Z,1010.99
2019-06-15T01:31:32.508Z,1011.00
2019-06-15T01:32:32.477Z,1010.93
2019-06-15T01:33:32.457Z,1010.97
2019-06-15T01:34:32.436Z,1010.91
2019-06-15T01:35:32.415Z,1010.92
2019-06-15T01:36:32.398Z,1010.92
2019-06-15T01:37:32.375Z,1010.89
2019-06-15T01:38:32.354Z,1010.90
2019-06-15T01:39:32.332Z,1010.91
2019-06-15T01:40:32.313Z,1010.92
2019-06-15T01:41:32.294Z,1010.93
2019-06-15T01:42:32.275Z,1010.94
2019-06-15T01:43:32.251Z,1010.92
2019-06-15T01:44:32.229Z,1010.94
2019-06-15T01:45:32.210Z,1010.92
2019-06-15T01:46:32.190Z,1010.90
2019-06-15T01:47:32.169Z,1010.86
2019-06-15T01:48:32.146Z,1010.80
2019-06-15T01:49:32.127Z,1010.81
2019-06-15T01:50:32.107Z,1010.79
2019-06-15T01:51:32.102Z,1010.76
2019-06-15T01:52:32.066Z,1010.71
2019-06-15T01:53:32.046Z,1010.70
2019-06-15T01:54:32.028Z,1010.65
2019-06-15T01:55:32.004Z,1010.60
2019-06-15T01:56:31.987Z,1010.55
2019-06-15T01:57:31.963Z,1010.54
2019-06-15T01:58:31.943Z,1010.49
2019-06-15T01:59:31.922Z,1010.48
2019-06-15T02:00:31.905Z,1010.48
2019-06-15T02:01:31.880Z,1010.48
2019-06-15T02:02:31.870Z,1010.49
2019-06-15T02:03:31.840Z,1010.52
2019-06-15T02:04:31.819Z,1010.50
2019-06-15T02:05:31.797Z,1010.51
2019-06-15T02:06:31.778Z,1010.52
2019-06-15T02:07:31.756Z,1010.46
2019-06-15T02:08:31.739Z,1010.45
2019-06-15T02:09:31.716Z,1010.40
2019-06-15T02:10:31.696Z,1010.35
2019-06-15T02:11:31.673Z,1010.28
2019-06-15T02:12:31.655Z,1010.17
2019-06-15T02:13:31.643Z,1010.16
2019-06-15T02:14:31.613Z,1010.11
2019-06-15T02:15:31.591Z,1010.12
2019-06-15T02:16:31.572Z,1010.02
2019-06-15T02:17:31.561Z,1010.02
2019-06-15T02:18:31.569Z,1009.97
2019-06-15T02:19:31.557Z,1009.95
2019-06-15T02:20:31.488Z,1009.94
2019-06-15T02:21:31.471Z,1009.86
2019-06-15T02:22:31.449Z,1009.83
2019-06-15T02:23:31.431Z,1009.85
2019-06-15T02:24:31.419Z,1009.78
2019-06-15T02:25:36.331Z,1009.80
2019-06-15T02:26:31.366Z,1009.77
2019-06-15T02:27:31.343Z,1009.82
2019-06-15T02:28:31.326Z,1009.79
2019-06-15T02:29:31.305Z,1009.70
2019-06-15T02:30:31.312Z,1009.70
2019-06-15T02:31:31.262Z,1009.70
2019-06-15T02:32:31.241Z,1009.63
2019-06-15T02:33:31.221Z,1009.67
2019-06-15T02:34:31.207Z,1009.62
2019-06-15T02:35:31.182Z,1009.62
2019-06-15T02:36:31.159Z,1009.63
2019-06-15T02:37:31.138Z,1009.62
2019-06-15T02:38:31.122Z,1009.62
2019-06-15T02:39:31.097Z,1009.56
2019-06-15T02:40:31.129Z,1009.59
2019-06-15T02:41:31.107Z,1009.51
2019-06-15T02:42:31.036Z,1009.50
2019-06-15T02:43:31.022Z,1009.51
2019-06-15T02:44:30.999Z,1009.54
2019-06-15T02:45:30.975Z,1009.56
2019-06-15T02:46:30.956Z,1009.54
2019-06-15T02:47:30.937Z,1009.55
2019-06-15T02:48:30.915Z,1009.48
2019-06-15T02:49:30.894Z,1009.46
2019-06-15T02:50:30.875Z,1009.40
2019-06-15T02:51:30.853Z,1009.40
2019-06-15T02:52:30.834Z,1009.43
2019-06-15T02:53:30.814Z,1009.39
2019-06-15T02:54:30.793Z,1009.45
2019-06-15T02:55:30.773Z,1009.48
2019-06-15T02:56:30.753Z,1009.53
2019-06-15T02:57:30.733Z,1009.55
2019-06-15T02:58:30.713Z,1009.56
2019-06-15T02:59:32.448Z,1009.65
2019-06-15T03:00:30.673Z,1009.67
2019-06-15T03:01:30.674Z,1009.67
2019-06-15T03:02:30.632Z,1009.66
2019-06-15T03:03:30.611Z,1009.73
2019-06-15T03:04:30.591Z,1009.74
2019-06-15T03:05:30.575Z,1009.78
2019-06-15T03:06:30.553Z,1009.72
2019-06-15T03:07:30.532Z,1009.72
2019-06-15T03:08:30.511Z,1009.71
2019-06-15T03:09:30.504Z,1009.69
2019-06-15T03:10:30.472Z,1009.63
2019-06-15T03:11:30.451Z,1009.59
2019-06-15T03:12:30.433Z,1009.54
2019-06-15T03:13:30.413Z,1009.56
2019-06-15T03:14:30.393Z,1009.55
2019-06-15T03:15:30.372Z,1009.55
2019-06-15T03:16:30.352Z,1009.53
2019-06-15T03:17:30.333Z,1009.58
2019-06-15T03:18:30.315Z,1009.58
2019-06-15T03:19:30.292Z,1009.59
2019-06-15T03:20:30.273Z,1009.52
2019-06-15T03:21:30.257Z,1009.55
2019-06-15T03:22:30.241Z,1009.53
2019-06-15T03:23:30.218Z,1009.49
2019-06-15T03:24:30.193Z,1009.48
2019-06-15T03:25:30.175Z,1009.41
2019-06-15T03:26:30.153Z,1009.40
2019-06-15T03:27:30.135Z,1009.37
2019-06-15T03:28:30.113Z,1009.36
2019-06-15T03:29:30.096Z,1009.28
2019-06-15T03:30:30.084Z,1009.25
2019-06-15T03:31:30.054Z,1009.23
2019-06-15T03:32:30.033Z,1009.23
2019-06-15T03:33:30.014Z,1009.18
2019-06-15T03:34:29.994Z,1009.19
2019-06-15T03:35:29.972Z,1009.15
2019-06-15T03:36:29.953Z,1009.12
2019-06-15T03:37:29.932Z,1009.15
2019-06-15T03:38:29.913Z,1009.12
2019-06-15T03:39:29.893Z,1009.05
2019-06-15T03:40:29.877Z,1008.99
2019-06-15T03:41:29.853Z,1008.94
2019-06-15T03:42:29.835Z,1008.99
2019-06-15T03:43:29.813Z,1009.00
2019-06-15T03:44:29.793Z,1009.02
2019-06-15T03:45:29.783Z,1009.02
2019-06-15T03:46:29.754Z,1009.03
2019-06-15T03:47:29.731Z,1008.97
2019-06-15T03:48:29.714Z,1008.97
2019-06-15T03:49:29.693Z,1008.94
2019-06-15T03:50:29.674Z,1008.93
2019-06-15T03:51:29.652Z,1008.91
2019-06-15T03:52:29.632Z,1008.87
2019-06-15T03:53:29.611Z,1008.82
2019-06-15T03:54:29.592Z,1008.85
2019-06-15T03:55:29.572Z,1008.89
2019-06-15T03:56:29.593Z,1008.97
2019-06-15T03:57:29.533Z,1009.02
2019-06-15T03:58:29.512Z,1008.92
2019-06-15T03:59:29.495Z,1008.93
2019-06-15T04:00:29.473Z,1008.86
2019-06-15T04:01:29.521Z,1008.87
2019-06-15T04:02:29.432Z,1008.84
2019-06-15T04:03:29.410Z,1008.82
2019-06-15T04:04:29.391Z,1008.80
2019-06-15T04:05:29.371Z,1008.77
2019-06-15T04:06:29.361Z,1008.74
2019-06-15T04:07:29.331Z,1008.78
2019-06-15T04:08:29.311Z,1008.71
2019-06-15T04:09:29.291Z,1008.63
2019-06-15T04:10:29.272Z,1008.65
2019-06-15T04:11:29.253Z,1008.64
2019-06-15T04:12:29.235Z,1008.67
2019-06-15T04:13:29.212Z,1008.72
2019-06-15T04:14:29.191Z,1008.69
2019-06-15T04:15:29.170Z,1008.72
2019-06-15T04:16:29.150Z,1008.69
2019-06-15T04:17:29.132Z,1008.64
2019-06-15T04:18:29.114Z,1008.60
2019-06-15T04:19:29.092Z,1008.55
2019-06-15T04:20:29.085Z,1008.54
2019-06-15T04:21:29.053Z,1008.49
2019-06-15T04:22:29.031Z,1008.42
2019-06-15T04:23:29.102Z,1008.39
2019-06-15T04:24:28.993Z,1008.38
2019-06-15T04:25:28.973Z,1008.31
2019-06-15T04:26:36.151Z,1008.33
2019-06-15T04:27:28.933Z,1008.35
2019-06-15T04:28:28.915Z,1008.33
2019-06-15T04:29:28.895Z,1008.33
2019-06-15T04:30:28.877Z,1008.32
2019-06-15T04:31:28.859Z,1008.29
2019-06-15T04:32:28.836Z,1008.26
2019-06-15T04:33:28.814Z,1008.25
2019-06-15T04:34:28.796Z,1008.24
2019-06-15T04:35:28.776Z,1008.18
2019-06-15T04:36:28.758Z,1008.13
2019-06-15T04:37:28.748Z,1008.08
2019-06-15T04:38:28.717Z,1008.04
2019-06-15T04:39:28.697Z,1007.96
2019-06-15T04:40:28.676Z,1007.92
2019-06-15T04:41:28.659Z,1007.88
2019-06-15T04:42:28.748Z,1007.81
2019-06-15T04:43:28.618Z,1007.80
2019-06-15T04:44:28.600Z,1007.78
2019-06-15T04:45:28.587Z,1007.71
2019-06-15T04:46:28.561Z,1007.68
2019-06-15T04:47:28.555Z,1007.63
2019-06-15T04:48:28.521Z,1007.62
2019-06-15T04:49:28.501Z,1007.60
2019-06-15T04:50:28.483Z,1007.55
2019-06-15T04:51:28.462Z,1007.55
2019-06-15T04:52:28.487Z,1007.50
2019-06-15T04:53:28.428Z,1007.52
2019-06-15T04:54:28.404Z,1007.61
2019-06-15T04:55:28.383Z,1007.61
2019-06-15T04:56:28.364Z,1007.69
2019-06-15T04:57:28.351Z,1007.71
2019-06-15T04:58:28.325Z,1007.72
2019-06-15T04:59:28.306Z,1007.68
2019-06-15T05:00:28.287Z,1007.72
2019-06-15T05:01:28.269Z,1007.75
2019-06-15T05:02:28.247Z,1007.79
2019-06-15T05:03:28.274Z,1007.73
2019-06-15T05:04:28.211Z,1007.69
2019-06-15T05:05:28.191Z,1007.72
2019-06-15T05:06:28.174Z,1007.74
2019-06-15T05:07:28.149Z,1007.78
2019-06-15T05:08:28.132Z,1007.78
2019-06-15T05:09:28.114Z,1007.79
2019-06-15T05:10:28.095Z,1007.78
2019-06-15T05:11:28.075Z,1007.79
2019-06-15T05:12:28.054Z,1007.81
2019-06-15T05:13:28.035Z,1007.86
2019-06-15T05:14:28.017Z,1007.83
2019-06-15T05:15:27.999Z,1007.82
2019-06-15T05:16:27.983Z,1007.83
2019-06-15T05:17:27.959Z,1007.84
2019-06-15T05:18:27.948Z,1007.90
2019-06-15T05:19:27.919Z,1007.88
2019-06-15T05:20:27.902Z,1007.92
2019-06-15T05:21:27.884Z,1007.88
2019-06-15T05:22:27.865Z,1007.87
2019-06-15T05:23:27.845Z,1007.93
2019-06-15T05:24:27.828Z,1007.93
2019-06-15T05:25:27.809Z,1007.96
2019-06-15T05:26:27.788Z,1007.97
2019-06-15T05:27:27.770Z,1008.00
2019-06-15T05:28:27.751Z,1008.01
2019-06-15T05:29:27.732Z,1008.07
2019-06-15T05:30:27.716Z,1008.05
2019-06-15T05:31:27.698Z,1008.06
2019-06-15T05:32:27.675Z,1008.10
2019-06-15T05:33:27.657Z,1008.19
2019-06-15T05:34:27.641Z,1008.10
2019-06-15T05:35:27.618Z,1008.12
2019-06-15T05:36:27.603Z,1008.11
2019-06-15T05:37:27.584Z,1008.12
2019-06-15T05:38:27.564Z,1008.08
2019-06-15T05:39:27.547Z,1008.07
2019-06-15T05:40:27.527Z,1008.06
2019-06-15T05:41:27.509Z,1008.06
2019-06-15T05:42:27.491Z,1008.06
2019-06-15T05:43:27.473Z,1008.02
2019-06-15T05:44:27.458Z,1007.99
2019-06-15T05:45:27.441Z,1008.09
2019-06-15T05:46:27.419Z,1008.00
2019-06-15T05:47:27.409Z,1007.95
2019-06-15T05:48:27.379Z,1007.99
2019-06-15T05:49:27.362Z,1007.98
2019-06-15T05:50:27.343Z,1007.94
2019-06-15T05:51:27.326Z,1007.97
2019-06-15T05:52:27.306Z,1007.95
2019-06-15T05:53:27.422Z,1007.97
2019-06-15T05:54:27.270Z,1008.00
2019-06-15T05:55:27.253Z,1008.02
2019-06-15T05:56:27.236Z,1008.05
2019-06-15T05:57:27.215Z,1008.13
2019-06-15T05:58:27.198Z,1008.16
2019-06-15T05:59:27.178Z,1008.20
2019-06-15T06:00:27.161Z,1008.22
2019-06-15T06:01:27.142Z,1008.24
2019-06-15T06:02:27.124Z,1008.27
2019-06-15T06:03:27.105Z,1008.25
2019-06-15T06:04:27.089Z,1008.25
2019-06-15T06:05:27.072Z,1008.28
2019-06-15T06:06:27.050Z,1008.25
2019-06-15T06:07:27.034Z,1008.27
2019-06-15T06:08:27.014Z,1008.21
2019-06-15T06:09:26.995Z,1008.18
2019-06-15T06:10:26.976Z,1008.20
2019-06-15T06:11:26.962Z,1008.14
2019-06-15T06:12:26.941Z,1008.16
2019-06-15T06:13:26.922Z,1008.14
2019-06-15T06:14:26.911Z,1008.17
2019-06-15T06:15:27.099Z,1008.17
2019-06-15T06:16:26.868Z,1008.14
2019-06-15T06:17:26.854Z,1008.16
2019-06-15T06:18:26.832Z,1008.09
2019-06-15T06:19:26.813Z,1008.04
2019-06-15T06:20:26.797Z,1008.05
2019-06-15T06:21:26.777Z,1008.02
2019-06-15T06:22:26.766Z,1008.03
2019-06-15T06:23:26.762Z,1008.03
2019-06-15T06:24:26.728Z,1008.01
2019-06-15T06:25:26.707Z,1008.01
2019-06-15T06:26:26.688Z,1008.04
2019-06-15T06:27:36.063Z,1008.04
2019-06-15T06:28:26.731Z,1008.05
2019-06-15T06:29:26.635Z,1008.08
2019-06-15T06:30:29.955Z,1008.08
2019-06-15T06:31:26.618Z,1008.07
2019-06-15T06:32:26.578Z,1008.08
2019-06-15T06:33:26.565Z,1008.06
2019-06-15T06:34:26.542Z,1008.03
2019-06-15T06:35:26.527Z,1008.03
2019-06-15T06:36:26.514Z,1008.05
2019-06-15T06:37:26.488Z,1007.98
2019-06-15T06:38:26.470Z,1007.95
2019-06-15T06:39:26.450Z,1007.92
2019-06-15T06:40:26.435Z,1007.94
2019-06-15T06:41:26.418Z,1007.89
2019-06-15T06:42:26.396Z,1007.89
2019-06-15T06:43:26.378Z,1007.96
2019-06-15T06:44:26.361Z,1007.97
2019-06-15T06:45:26.345Z,1007.96
2019-06-15T06:46:26.325Z,1007.98
2019-06-15T06:47:26.307Z,1008.01
2019-06-15T06:48:26.291Z,1007.98
2019-06-15T06:49:26.273Z,1008.03
2019-06-15T06:50:26.256Z,1007.95
2019-06-15T06:51:26.237Z,1007.95
2019-06-15T06:52:26.219Z,1007.90
2019-06-15T06:53:26.201Z,1007.92
2019-06-15T06:54:26.208Z,1007.89
2019-06-15T06:55:26.164Z,1007.87
2019-06-15T06:56:26.148Z,1007.77
2019-06-15T06:57:26.131Z,1007.78
2019-06-15T06:58:26.130Z,1007.79
2019-06-15T06:59:26.093Z,1007.80
2019-06-15T07:00:26.076Z,1007.80
2019-06-15T07:01:26.058Z,1007.87
2019-06-15T07:02:26.047Z,1007.84
2019-06-15T07:03:26.022Z,1007.87
2019-06-15T07:04:26.008Z,1007.81
2019-06-15T07:05:25.987Z,1007.85
2019-06-15T07:06:25.970Z,1007.80
2019-06-15T07:07:25.953Z,1007.82
2019-06-15T07:08:25.937Z,1007.84
2019-06-15T07:09:25.915Z,1007.84
2019-06-15T07:10:25.897Z,1007.92
2019-06-15T07:11:25.880Z,1007.94
2019-06-15T07:12:25.864Z,1008.02
2019-06-15T07:13:25.871Z,1008.01
2019-06-15T07:14:25.828Z,1008.09
2019-06-15T07:15:25.815Z,1008.14
2019-06-15T07:16:25.793Z,1008.21
2019-06-15T07:17:25.775Z,1008.30
2019-06-15T07:18:25.757Z,1008.28
2019-06-15T07:19:25.741Z,1008.20
2019-06-15T07:20:25.727Z,1008.10
2019-06-15T07:21:25.707Z,1008.05
2019-06-15T07:22:25.695Z,1008.03
2019-06-15T07:23:25.669Z,1008.00
2019-06-15T07:24:25.673Z,1008.03
2019-06-15T07:25:25.636Z,1008.00
2019-06-15T07:26:25.618Z,1007.99
2019-06-15T07:27:25.599Z,1008.00
2019-06-15T07:28:25.581Z,1007.99
2019-06-15T07:29:25.565Z,1007.96
2019-06-15T07:30:25.549Z,1007.91
2019-06-15T07:31:25.530Z,1007.86
2019-06-15T07:32:25.512Z,1007.84
2019-06-15T07:33:25.494Z,1007.80
2019-06-15T07:34:25.477Z,1007.74
2019-06-15T07:35:25.460Z,1007.70
2019-06-15T07:36:25.444Z,1007.68
2019-06-15T07:37:25.433Z,1007.65
2019-06-15T07:38:25.409Z,1007.65
2019-06-15T07:39:25.409Z,1007.60
2019-06-15T07:40:25.385Z,1007.58
2019-06-15T07:41:25.378Z,1007.62
2019-06-15T07:42:25.340Z,1007.65
2019-06-15T07:43:25.324Z,1007.66
2019-06-15T07:44:25.308Z,1007.66
2019-06-15T07:45:25.291Z,1007.67
2019-06-15T07:46:25.272Z,1007.66
2019-06-15T07:47:25.253Z,1007.60
2019-06-15T07:48:25.237Z,1007.57
2019-06-15T07:49:25.221Z,1007.55
2019-06-15T07:50:25.212Z,1007.52
2019-06-15T07:51:25.187Z,1007.50
2019-06-15T07:52:25.188Z,1007.56
2019-06-15T07:53:25.157Z,1007.55
2019-06-15T07:54:25.144Z,1007.58
2019-06-15T07:55:25.123Z,1007.52
2019-06-15T07:56:25.105Z,1007.48
2019-06-15T07:57:25.091Z,1007.50
2019-06-15T07:58:25.139Z,1007.55
2019-06-15T07:59:25.060Z,1007.55
2019-06-15T08:00:25.042Z,1007.52
2019-06-15T08:01:25.029Z,1007.52
2019-06-15T08:02:25.014Z,1007.53
2019-06-15T08:03:24.995Z,1007.46
2019-06-15T08:04:24.981Z,1007.45
2019-06-15T08:05:24.967Z,1007.44
2019-06-15T08:06:24.959Z,1007.40
2019-06-15T08:07:24.934Z,1007.35
2019-06-15T08:08:24.919Z,1007.43
2019-06-15T08:09:24.905Z,1007.38
2019-06-15T08:10:24.890Z,1007.35
2019-06-15T08:11:24.874Z,1007.43
2019-06-15T08:12:24.858Z,1007.40
2019-06-15T08:13:24.843Z,1007.39
2019-06-15T08:14:24.844Z,1007.44
2019-06-15T08:15:24.816Z,1007.40
2019-06-15T08:16:24.798Z,1007.39
2019-06-15T08:17:24.784Z,1007.34
2019-06-15T08:18:24.770Z,1007.38
2019-06-15T08:19:24.756Z,1007.34
2019-06-15T08:20:24.766Z,1007.37
2019-06-15T08:21:24.723Z,1007.33
2019-06-15T08:22:24.708Z,1007.33
2019-06-15T08:23:24.692Z,1007.31
2019-06-15T08:24:24.678Z,1007.31
2019-06-15T08:25:24.662Z,1007.30
2019-06-15T08:26:24.648Z,1007.27
2019-06-15T08:27:24.634Z,1007.25
2019-06-15T08:28:39.348Z,1007.27
2019-06-15T08:29:24.633Z,1007.27
2019-06-15T08:30:24.593Z,1007.28
2019-06-15T08:31:24.639Z,1007.33
2019-06-15T08:32:24.556Z,1007.34
2019-06-15T08:33:24.539Z,1007.37
2019-06-15T08:34:24.528Z,1007.39
2019-06-15T08:35:24.511Z,1007.33
2019-06-15T08:36:24.496Z,1007.32
2019-06-15T08:37:24.513Z,1007.27
2019-06-15T08:38:24.469Z,1007.20
2019-06-15T08:39:24.449Z,1007.22
2019-06-15T08:40:24.435Z,1007.21
2019-06-15T08:41:24.421Z,1007.25
2019-06-15T08:42:24.408Z,1007.30
2019-06-15T08:43:24.403Z,1007.32
2019-06-15T08:44:24.379Z,1007.22
2019-06-15T08:45:24.367Z,1007.24
2019-06-15T08:46:24.350Z,1007.25
2019-06-15T08:47:24.334Z,1007.17
2019-06-15T08:48:24.320Z,1007.20
2019-06-15T08:49:24.325Z,1007.26
2019-06-15T08:50:24.293Z,1007.19
2019-06-15T08:51:24.279Z,1007.15
2019-06-15T08:52:24.267Z,1007.20
2019-06-15T08:53:24.254Z,1007.21
2019-06-15T08:54:24.275Z,1007.15
2019-06-15T08:55:24.228Z,1007.13
2019-06-15T08:56:24.214Z,1007.15
2019-06-15T08:57:24.203Z,1007.13
2019-06-15T08:58:24.189Z,1007.09
2019-06-15T08:59:24.176Z,1007.10
2019-06-15T09:00:24.203Z,1007.10
2019-06-15T09:01:24.225Z,1007.07
2019-06-15T09:02:24.192Z,1007.11
2019-06-15T09:03:24.125Z,1007.10
2019-06-15T09:04:24.111Z,1007.15
2019-06-15T09:05:24.099Z,1007.07
2019-06-15T09:06:24.088Z,1007.05
2019-06-15T09:07:24.073Z,1007.00
2019-06-15T09:08:24.062Z,1006.99
2019-06-15T09:09:24.051Z,1007.06
2019-06-15T09:10:24.045Z,1007.04
2019-06-15T09:11:24.025Z,1007.09
2019-06-15T09:12:25.100Z,1007.08
2019-06-15T09:13:24.002Z,1007.06
2019-06-15T09:14:23.987Z,1007.09
2019-06-15T09:15:23.977Z,1007.10
2019-06-15T09:16:25.821Z,1007.12
2019-06-15T09:17:23.952Z,1007.03
2019-06-15T09:18:23.941Z,1007.08
2019-06-15T09:19:23.927Z,1007.06
2019-06-15T09:20:23.915Z,1007.12
2019-06-15T09:21:23.902Z,1007.07
2019-06-15T09:22:23.891Z,1007.08
2019-06-15T09:23:23.879Z,1007.07
2019-06-15T09:24:23.872Z,1007.08
2019-06-15T09:25:23.865Z,1007.07
2019-06-15T09:26:23.843Z,1007.10
2019-06-15T09:27:23.830Z,1007.09
2019-06-15T09:28:23.819Z,1007.04
2019-06-15T09:29:23.807Z,1007.07
2019-06-15T09:30:23.795Z,1007.01
2019-06-15T09:31:23.783Z,1007.00
2019-06-15T09:32:23.771Z,1007.00
2019-06-15T09:33:23.760Z,1006.95
2019-06-15T09:34:23.747Z,1007.01
2019-06-15T09:35:23.735Z,1007.01
2019-06-15T09:36:23.723Z,1006.95
2019-06-15T09:37:23.738Z,1006.93
2019-06-15T09:38:23.709Z,1006.90
2019-06-15T09:39:23.689Z,1006.95
2019-06-15T09:40:23.674Z,1006.97
2019-06-15T09:41:23.663Z,1006.96
2019-06-15T09:42:23.654Z,1006.99
2019-06-15T09:43:23.640Z,1007.00
2019-06-15T09:44:23.629Z,1006.98
2019-06-15T09:45:23.616Z,1006.98
2019-06-15T09:46:23.605Z,1006.95
2019-06-15T09:47:23.593Z,1006.95
2019-06-15T09:48:23.593Z,1006.98
2019-06-15T09:49:23.569Z,1006.94
2019-06-15T09:50:23.555Z,1006.90
2019-06-15T09:51:23.547Z,1006.89
2019-06-15T09:52:23.535Z,1006.92
2019-06-15T09:53:23.524Z,1006.92
2019-06-15T09:54:23.515Z,1006.91
2019-06-15T09:55:23.502Z,1006.89
2019-06-15T09:56:23.489Z,1006.94
2019-06-15T09:57:23.484Z,1006.90
2019-06-15T09:58:23.469Z,1006.92
2019-06-15T09:59:26.287Z,1006.92
2019-06-15T10:00:23.449Z,1006.89
2019-06-15T10:01:23.437Z,1006.90
2019-06-15T10:02:23.424Z,1006.92
2019-06-15T10:03:23.413Z,1006.95
2019-06-15T10:04:23.417Z,1006.96
2019-06-15T10:05:23.389Z,1006.90
2019-06-15T10:06:23.378Z,1006.88
2019-06-15T10:07:23.367Z,1006.87
2019-06-15T10:08:23.359Z,1006.90
2019-06-15T10:09:23.346Z,1006.87
2019-06-15T10:10:23.332Z,1006.86
2019-06-15T10:11:23.323Z,1006.89
2019-06-15T10:12:23.310Z,1006.88
2019-06-15T10:13:23.299Z,1006.87
2019-06-15T10:14:23.289Z,1006.86
2019-06-15T10:15:23.284Z,1006.85
2019-06-15T10:16:23.265Z,1006.85
2019-06-15T10:17:23.258Z,1006.81
2019-06-15T10:18:23.272Z,1006.85
2019-06-15T10:19:23.250Z,1006.86
2019-06-15T10:20:23.220Z,1006.89
2019-06-15T10:21:23.210Z,1006.88
2019-06-15T10:22:23.206Z,1006.85
2019-06-15T10:23:23.205Z,1006.93
2019-06-15T10:24:23.178Z,1006.91
2019-06-15T10:25:23.165Z,1006.91
2019-06-15T10:26:23.154Z,1006.92
2019-06-15T10:27:23.142Z,1006.88
2019-06-15T10:28:23.131Z,1006.92
2019-06-15T10:29:23.119Z,1006.89
2019-06-15T10:30:23.109Z,1006.94
2019-06-15T10:31:23.097Z,1006.97
2019-06-15T10:32:23.086Z,1007.00
2019-06-15T10:33:23.076Z,1006.99
2019-06-15T10:34:23.069Z,1006.98
2019-06-15T10:35:23.059Z,1007.02
2019-06-15T10:36:23.051Z,1007.00
2019-06-15T10:37:23.030Z,1007.02
2019-06-15T10:38:23.026Z,1007.06
2019-06-15T10:39:23.011Z,1007.09
2019-06-15T10:40:22.997Z,1007.04
2019-06-15T10:41:22.987Z,1006.98
2019-06-15T10:42:22.997Z,1006.94
2019-06-15T10:43:22.964Z,1006.98
2019-06-15T10:44:22.952Z,1007.00
2019-06-15T10:45:22.941Z,1007.02
2019-06-15T10:46:22.929Z,1006.95
2019-06-15T10:47:22.918Z,1007.02
2019-06-15T10:48:22.908Z,1007.01
2019-06-15T10:49:22.897Z,1007.03
2019-06-15T10:50:22.883Z,1007.03
2019-06-15T10:51:22.871Z,1006.97
2019-06-15T10:52:22.859Z,1006.98
2019-06-15T10:53:22.847Z,1006.94
2019-06-15T10:54:22.837Z,1006.92
2019-06-15T10:55:22.826Z,1006.91
2019-06-15T10:56:22.812Z,1006.92
2019-06-15T10:57:22.803Z,1006.92
2019-06-15T10:58:22.789Z,1006.93
2019-06-15T10:59:22.778Z,1006.95
2019-06-15T11:00:22.767Z,1006.93
2019-06-15T11:01:22.757Z,1006.94
2019-06-15T11:02:22.745Z,1006.98
2019-06-15T11:03:22.731Z,1007.03
2019-06-15T11:04:22.722Z,1007.03
2019-06-15T11:05:22.708Z,1007.01
2019-06-15T11:06:22.698Z,1006.94
2019-06-15T11:07:22.690Z,1006.89
2019-06-15T11:08:22.674Z,1006.88
2019-06-15T11:09:22.665Z,1006.92
2019-06-15T11:10:22.655Z,1006.88
2019-06-15T11:11:22.648Z,1006.90
2019-06-15T11:12:22.629Z,1006.89
2019-06-15T11:13:22.630Z,1006.93
2019-06-15T11:14:22.611Z,1007.01
2019-06-15T11:15:22.606Z,1006.96
2019-06-15T11:16:22.584Z,1006.94
2019-06-15T11:17:22.580Z,1006.97
2019-06-15T11:18:22.561Z,1006.95
2019-06-15T11:19:22.577Z,1006.99
2019-06-15T11:20:22.572Z,1006.98
2019-06-15T11:21:22.530Z,1007.02
2019-06-15T11:22:22.515Z,1007.00
2019-06-15T11:23:22.503Z,1006.99
2019-06-15T11:24:22.492Z,1006.99
2019-06-15T11:25:22.481Z,1007.01
2019-06-15T11:26:22.468Z,1006.99
2019-06-15T11:27:22.462Z,1007.02
2019-06-15T11:28:22.457Z,1007.01
2019-06-15T11:29:22.434Z,1007.03
2019-06-15T11:30:22.424Z,1007.06
2019-06-15T11:31:22.411Z,1007.07
2019-06-15T11:32:22.399Z,1007.12
2019-06-15T11:33:22.385Z,1007.12
2019-06-15T11:34:22.375Z,1007.13
2019-06-15T11:35:22.364Z,1007.18
2019-06-15T11:36:22.353Z,1007.15
2019-06-15T11:37:22.358Z,1007.15
2019-06-15T11:38:22.330Z,1007.17
2019-06-15T11:39:22.317Z,1007.18
2019-06-15T11:40:22.305Z,1007.17
2019-06-15T11:41:22.295Z,1007.15
2019-06-15T11:42:22.283Z,1007.15
2019-06-15T11:43:22.272Z,1007.15
2019-06-15T11:44:22.260Z,1007.15
2019-06-15T11:45:22.249Z,1007.18
2019-06-15T11:46:22.238Z,1007.18
2019-06-15T11:47:22.230Z,1007.21
2019-06-15T11:48:22.215Z,1007.25
2019-06-15T11:49:22.206Z,1007.24
2019-06-15T11:50:22.194Z,1007.14
2019-06-15T11:51:22.182Z,1007.14
2019-06-15T11:52:22.174Z,1007.19
2019-06-15T11:53:22.164Z,1007.19
2019-06-15T11:54:22.151Z,1007.21
2019-06-15T11:55:22.174Z,1007.21
2019-06-15T11:56:22.128Z,1007.19
2019-06-15T11:57:22.171Z,1007.21
2019-06-15T11:58:22.108Z,1007.22
2019-06-15T11:59:22.095Z,1007.23
2019-06-15T12:00:31.394Z,1007.23
2019-06-15T12:01:22.077Z,1007.23
2019-06-15T12:02:22.064Z,1007.25
2019-06-15T12:03:22.055Z,1007.20
2019-06-15T12:04:22.043Z,1007.21
2019-06-15T12:05:22.033Z,1007.22